createdAt,value
2023-05-17T00:00:37.655Z,1.50
2023-05-17T00:03:27.526Z,1.98
2023-05-17T00:06:14.832Z,1.77
2023-05-17T00:09:02.458Z,2.10
2023-05-17T00:11:51.934Z,2.05
2023-05-17T00:14:39.221Z,1.70
2023-05-17T00:17:26.405Z,2.40
2023-05-17T00:20:13.685Z,1.80
2023-05-17T00:23:00.966Z,1.65
2023-05-17T00:25:51.393Z,2.15
2023-05-17T00:28:38.577Z,1.90
2023-05-17T00:31:25.883Z,2.03
2023-05-17T00:34:15.654Z,1.63
2023-05-17T00:37:05.792Z,2.20
2023-05-17T00:39:57.770Z,1.70
2023-05-17T00:42:45.326Z,1.92
2023-05-17T00:45:32.533Z,1.65
2023-05-17T00:48:21.361Z,1.75
2023-05-17T00:51:08.935Z,2.00
2023-05-17T00:53:56.203Z,1.92
2023-05-17T00:56:43.674Z,2.45
2023-05-17T00:59:31.532Z,1.80
2023-05-17T01:02:18.849Z,2.15
2023-05-17T01:05:06.607Z,1.67
2023-05-17T01:07:56.548Z,1.70
2023-05-17T01:11:21.148Z,2.00
2023-05-17T01:14:28.099Z,1.90
2023-05-17T01:17:44.800Z,1.77
2023-05-17T01:20:43.663Z,1.95
2023-05-17T01:23:45.662Z,1.95
2023-05-17T01:26:46.697Z,1.80
2023-05-17T01:29:38.446Z,2.00
2023-05-17T01:32:26.480Z,2.07
2023-05-17T01:35:14.342Z,1.70
2023-05-17T01:38:01.534Z,1.75
2023-05-17T01:41:23.449Z,1.70
2023-05-17T01:44:24.510Z,2.15
2023-05-17T01:47:30.897Z,1.88
2023-05-17T01:50:22.572Z,1.88
2023-05-17T01:53:19.052Z,1.52
2023-05-17T01:56:13.717Z,2.40
2023-05-17T01:59:06.781Z,2.50
2023-05-17T02:02:07.513Z,2.13
2023-05-17T02:04:55.102Z,2.28
2023-05-17T02:07:44.658Z,2.00
2023-05-17T02:10:31.972Z,1.90
2023-05-17T02:13:35.027Z,1.90
2023-05-17T02:16:22.322Z,2.17
2023-05-17T02:19:09.774Z,2.08
2023-05-17T02:21:58.125Z,2.10
2023-05-17T02:24:46.778Z,2.10
2023-05-17T02:27:34.081Z,1.90
2023-05-17T02:30:22.483Z,2.17
2023-05-17T02:33:09.811Z,1.95
2023-05-17T02:35:57.053Z,2.17
2023-05-17T02:38:44.330Z,2.30
2023-05-17T02:41:31.542Z,2.20
2023-05-17T02:44:18.667Z,1.90
2023-05-17T02:47:08.744Z,2.42
2023-05-17T02:49:57.534Z,2.30
2023-05-17T02:52:44.714Z,2.63
2023-05-17T02:55:31.890Z,2.42
2023-05-17T02:58:19.032Z,2.97
2023-05-17T03:01:09.660Z,2.03
2023-05-17T03:03:56.983Z,2.38
2023-05-17T03:06:44.302Z,2.40
2023-05-17T03:09:31.728Z,2.60
2023-05-17T03:12:18.909Z,2.53
2023-05-17T03:15:08.454Z,2.85
2023-05-17T03:17:58.601Z,3.22
2023-05-17T03:20:45.885Z,2.58
2023-05-17T03:23:33.144Z,2.80
2023-05-17T03:26:20.457Z,2.60
2023-05-17T03:29:07.659Z,2.92
2023-05-17T03:31:55.114Z,2.60
2023-05-17T03:34:42.349Z,2.75
2023-05-17T03:37:29.530Z,3.20
2023-05-17T03:40:16.867Z,3.15
2023-05-17T03:43:04.492Z,3.47
2023-05-17T03:45:52.023Z,3.25
2023-05-17T03:48:39.305Z,4.00
2023-05-17T03:51:28.759Z,3.67
2023-05-17T03:54:15.955Z,3.70
2023-05-17T03:57:05.638Z,3.83
2023-05-17T03:59:52.929Z,3.95
2023-05-17T04:03:20.278Z,3.75
2023-05-17T04:06:10.310Z,3.80
2023-05-17T04:08:59.524Z,3.78
2023-05-17T04:11:46.903Z,4.20
2023-05-17T04:14:36.931Z,3.80
2023-05-17T04:17:24.214Z,3.83
2023-05-17T04:20:12.446Z,4.97
2023-05-17T04:23:01.824Z,5.68
2023-05-17T04:25:51.612Z,6.47
2023-05-17T04:28:38.867Z,5.85
2023-05-17T04:31:34.648Z,5.68
2023-05-17T04:34:27.664Z,5.72
2023-05-17T04:37:15.910Z,4.78
2023-05-17T04:40:03.580Z,5.55
2023-05-17T04:42:51.346Z,3.63
2023-05-17T04:45:41.313Z,4.63
2023-05-17T04:48:34.356Z,4.38
2023-05-17T04:51:21.788Z,4.28
2023-05-17T04:54:11.122Z,4.18
2023-05-17T04:56:58.377Z,8.07
2023-05-17T04:59:45.974Z,4.45
2023-05-17T05:02:33.862Z,3.70
2023-05-17T05:05:21.375Z,4.35
2023-05-17T05:08:11.632Z,4.15
2023-05-17T05:10:58.846Z,3.58
2023-05-17T05:13:46.072Z,3.20
2023-05-17T05:16:33.557Z,4.00
2023-05-17T05:19:21.136Z,3.30
2023-05-17T05:22:08.666Z,3.60
2023-05-17T05:24:56.705Z,3.28
2023-05-17T05:27:43.993Z,4.15
2023-05-17T05:30:33.085Z,3.58
2023-05-17T05:33:20.457Z,3.50
2023-05-17T05:36:08.132Z,3.25
2023-05-17T05:38:55.493Z,3.35
2023-05-17T05:41:46.155Z,3.10
2023-05-17T05:44:34.370Z,2.97
2023-05-17T05:56:06.677Z,2.80
2023-05-17T10:41:26.662Z,3.25
2023-05-17T11:45:52.942Z,3.50
2023-05-17T11:48:44.288Z,3.75
2023-05-17T11:51:41.895Z,3.50
2023-05-17T12:08:08.366Z,4.07
2023-05-17T12:10:57.764Z,3.25
2023-05-17T12:20:18.643Z,3.78
2023-05-17T12:23:12.230Z,3.95
2023-05-17T12:29:22.121Z,3.80
2023-05-17T12:32:11.055Z,4.00
2023-05-17T12:34:58.405Z,4.30
2023-05-17T12:37:46.291Z,4.32
2023-05-17T12:40:38.786Z,3.67
2023-05-17T12:43:28.862Z,3.90
2023-05-17T12:49:25.809Z,3.40
2023-05-17T12:52:13.281Z,4.07
2023-05-17T12:55:03.149Z,3.63
2023-05-17T12:57:55.263Z,3.42
2023-05-17T13:00:57.878Z,3.58
2023-05-17T13:03:51.910Z,3.42
2023-05-17T13:06:53.706Z,4.20
2023-05-17T13:09:50.858Z,3.72
2023-05-17T13:12:40.466Z,3.33
2023-05-17T13:15:32.376Z,4.20
2023-05-17T13:18:21.814Z,3.78
2023-05-17T13:21:11.559Z,4.05
2023-05-17T13:24:00.626Z,3.33
2023-05-17T13:26:50.471Z,3.80
2023-05-17T13:29:42.167Z,3.75
2023-05-17T13:32:30.232Z,4.00
2023-05-17T13:35:17.762Z,4.10
2023-05-17T13:38:09.511Z,3.63
2023-05-17T13:41:00.189Z,3.92
2023-05-17T13:43:50.142Z,3.72
2023-05-17T13:46:39.287Z,3.75
2023-05-17T13:49:31.227Z,3.33
2023-05-17T13:52:19.077Z,3.42
2023-05-17T13:55:07.375Z,3.63
2023-05-17T13:57:54.721Z,3.75
2023-05-17T14:00:44.948Z,4.00
2023-05-17T14:03:35.721Z,4.10
2023-05-17T14:06:23.514Z,3.75
2023-05-17T14:09:12.568Z,4.07
2023-05-17T14:12:06.588Z,3.67
2023-05-17T14:17:43.258Z,4.05
2023-05-17T14:20:30.998Z,4.00
2023-05-17T14:23:18.503Z,3.97
2023-05-17T14:26:07.768Z,3.95
2023-05-17T14:28:55.374Z,3.90
2023-05-17T14:31:43.854Z,3.80
2023-05-17T14:37:35.429Z,4.47
2023-05-17T14:40:26.692Z,4.00
2023-05-17T14:43:14.315Z,3.60
2023-05-17T14:46:07.786Z,3.67
2023-05-17T14:48:57.101Z,3.95
2023-05-17T14:51:45.138Z,4.00
2023-05-17T14:54:38.658Z,4.10
2023-05-17T14:57:29.845Z,3.85
2023-05-17T15:00:17.671Z,3.85
2023-05-17T15:03:16.490Z,4.15
2023-05-17T15:06:13.924Z,4.40
2023-05-17T15:09:05.424Z,3.92
2023-05-17T15:11:55.150Z,4.30
2023-05-17T15:14:46.807Z,3.63
2023-05-17T15:20:42.320Z,3.50
2023-05-17T15:23:31.747Z,3.88
2023-05-17T15:26:24.738Z,4.03
2023-05-17T15:29:16.999Z,3.92
2023-05-17T15:32:07.426Z,3.95
2023-05-17T15:34:55.246Z,4.32
2023-05-17T15:37:49.571Z,3.30
2023-05-17T15:40:36.918Z,3.92
2023-05-17T15:43:24.260Z,3.65
2023-05-17T15:46:13.313Z,4.55
2023-05-17T15:49:04.399Z,5.20
2023-05-17T15:52:14.891Z,4.35
2023-05-17T15:55:02.460Z,5.32
2023-05-17T15:57:49.871Z,4.40
2023-05-17T16:00:45.599Z,4.57
2023-05-17T16:03:40.802Z,4.63
2023-05-17T16:09:38.900Z,3.95
2023-05-17T16:15:34.260Z,4.13
2023-05-17T16:18:21.744Z,3.95
2023-05-17T16:21:11.646Z,3.70
2023-05-17T16:23:59.533Z,4.10
2023-05-17T16:26:53.723Z,3.92
2023-05-17T16:29:46.922Z,4.15
2023-05-17T16:32:34.795Z,4.38
2023-05-17T16:35:42.564Z,4.22
2023-05-17T16:42:51.963Z,4.07
2023-05-17T16:45:44.998Z,4.25
2023-05-17T16:48:32.418Z,3.97
2023-05-17T16:51:25.429Z,4.13
2023-05-17T16:54:13.103Z,3.53
2023-05-17T16:57:08.847Z,4.00
2023-05-17T17:00:00.459Z,4.35
2023-05-17T17:02:50.684Z,3.83
2023-05-17T17:06:01.508Z,4.63
2023-05-17T17:08:51.011Z,4.05
2023-05-17T17:11:39.253Z,3.97
2023-05-17T17:14:26.971Z,3.95
2023-05-17T17:17:14.505Z,4.40
2023-05-17T17:20:02.289Z,4.05
2023-05-17T17:22:53.280Z,4.35
2023-05-17T17:25:41.030Z,3.95
2023-05-17T17:28:29.434Z,3.72
2023-05-17T17:31:21.229Z,3.33
2023-05-17T17:34:08.738Z,4.10
2023-05-17T17:36:56.823Z,3.97
2023-05-17T17:39:46.505Z,4.40
2023-05-17T17:42:37.842Z,3.80
2023-05-17T17:45:25.321Z,3.92
2023-05-17T17:48:15.787Z,4.10
2023-05-17T17:51:07.233Z,4.20
2023-05-17T17:53:57.158Z,4.10
2023-05-17T17:56:46.051Z,4.10
2023-05-17T17:59:33.650Z,4.18
2023-05-17T18:02:21.563Z,4.32
2023-05-17T18:05:09.930Z,4.22
2023-05-17T18:07:58.120Z,3.85
2023-05-17T18:10:45.929Z,4.80
2023-05-17T18:13:33.606Z,4.13
2023-05-17T18:16:22.577Z,3.95
2023-05-17T18:19:10.255Z,4.80
2023-05-17T18:21:57.896Z,4.70
2023-05-17T18:24:46.146Z,4.10
2023-05-17T18:27:35.879Z,3.97
2023-05-17T18:30:25.361Z,4.20
2023-05-17T18:33:13.022Z,5.10
2023-05-17T18:36:02.833Z,4.32
2023-05-17T18:38:51.013Z,4.00
2023-05-17T18:41:40.330Z,3.85
2023-05-17T18:44:31.562Z,4.07
2023-05-17T18:47:20.710Z,4.93
2023-05-17T18:50:08.909Z,4.45
2023-05-17T18:52:57.336Z,4.50
2023-05-17T18:55:45.223Z,4.72
2023-05-17T18:58:33.210Z,4.78
2023-05-17T19:01:25.320Z,5.45
2023-05-17T19:04:25.628Z,5.43
2023-05-17T19:07:15.617Z,4.78
2023-05-17T19:10:04.626Z,5.25
2023-05-17T19:12:56.344Z,4.95
2023-05-17T19:15:48.103Z,4.82
2023-05-17T19:18:40.611Z,5.32
2023-05-17T19:24:36.405Z,5.22
2023-05-17T19:27:24.594Z,5.30
2023-05-17T19:30:14.754Z,5.10
2023-05-17T19:33:05.067Z,6.03
2023-05-17T19:39:23.384Z,5.70
2023-05-17T19:42:12.345Z,6.45
2023-05-17T19:45:00.463Z,6.63
2023-05-17T19:47:50.651Z,6.20
2023-05-17T19:50:42.714Z,5.95
2023-05-17T19:53:43.915Z,6.22
2023-05-17T19:56:39.009Z,6.22
2023-05-17T19:59:29.114Z,5.45
2023-05-17T20:02:21.236Z,5.78
2023-05-17T20:05:09.533Z,5.30
2023-05-17T20:11:04.087Z,5.05
2023-05-17T20:13:53.069Z,4.65
2023-05-17T20:16:40.935Z,5.20
2023-05-17T20:19:29.830Z,5.45
2023-05-17T20:22:22.212Z,4.90
2023-05-17T20:25:10.404Z,5.68
2023-05-17T20:31:04.394Z,5.30
2023-05-17T20:33:53.693Z,4.80
2023-05-17T20:36:41.366Z,5.35
2023-05-17T20:39:31.098Z,5.28
2023-05-17T20:42:21.191Z,5.40
2023-05-17T20:48:15.006Z,5.50
2023-05-17T20:51:04.316Z,6.22
2023-05-17T20:53:52.109Z,6.20
2023-05-17T20:56:41.898Z,6.60
2023-05-17T20:59:32.499Z,5.97
2023-05-17T21:05:31.522Z,7.13
2023-05-17T21:08:19.538Z,6.85
2023-05-17T21:11:08.636Z,6.85
2023-05-17T21:14:00.015Z,7.32
2023-05-17T21:16:56.358Z,7.63
2023-05-17T21:19:43.730Z,7.63
2023-05-17T21:22:31.033Z,7.90
2023-05-17T21:25:23.423Z,8.38
2023-05-17T21:28:12.077Z,7.85
2023-05-17T21:31:02.806Z,8.00
2023-05-17T21:33:52.022Z,8.20
2023-05-17T21:36:42.635Z,8.15
2023-05-17T21:39:40.789Z,7.68
2023-05-17T21:42:31.462Z,7.95
2023-05-17T21:45:19.163Z,8.10
2023-05-17T21:48:11.474Z,7.93
2023-05-17T21:51:17.181Z,8.55
2023-05-17T21:54:05.412Z,8.65
2023-05-17T21:56:53.148Z,12.75
2023-05-17T21:59:40.681Z,13.95
2023-05-17T22:02:28.304Z,25.45
2023-05-17T22:05:15.746Z,43.88
2023-05-17T22:08:03.268Z,43.70
2023-05-17T22:10:56.531Z,45.92
2023-05-17T22:13:47.273Z,43.80
2023-05-17T22:16:38.312Z,36.80
2023-05-17T22:19:26.002Z,31.92
2023-05-17T22:22:18.311Z,25.95
2023-05-17T22:25:06.948Z,26.42
2023-05-17T22:31:03.198Z,23.20
2023-05-17T22:36:55.148Z,17.95
2023-05-17T22:42:52.471Z,12.20
2023-05-17T22:45:41.284Z,11.38
2023-05-17T22:48:32.296Z,12.10
2023-05-17T22:51:22.566Z,12.40
2023-05-17T22:54:10.978Z,13.00
2023-05-17T22:57:01.402Z,12.93
2023-05-17T22:59:50.944Z,11.95
2023-05-17T23:02:40.672Z,12.63
2023-05-17T23:05:30.838Z,11.52
2023-05-17T23:08:18.407Z,11.63
2023-05-17T23:11:07.276Z,12.85
2023-05-17T23:14:00.257Z,17.10
2023-05-17T23:16:48.184Z,16.70
2023-05-17T23:19:35.680Z,15.93
2023-05-17T23:22:31.636Z,16.65
2023-05-17T23:25:21.872Z,15.48
2023-05-17T23:28:09.618Z,15.75
2023-05-17T23:31:02.206Z,14.43
2023-05-17T23:36:40.051Z,12.88
2023-05-17T23:39:27.604Z,12.73
2023-05-17T23:42:17.326Z,12.13
2023-05-17T23:45:07.683Z,11.82
2023-05-17T23:48:00.645Z,9.93
2023-05-17T23:50:48.699Z,10.68
2023-05-17T23:56:50.539Z,14.80
2023-05-17T23:59:39.908Z,15.25
